createdAt,value
2018-04-14T00:02:14.525Z,100827.22
2018-04-14T00:04:43.807Z,100836.02
2018-04-14T00:07:12.132Z,100842.98
2018-04-14T00:09:40.818Z,100847.67
2018-04-14T00:12:09.229Z,100849.66
2018-04-14T00:14:38.392Z,100855.06
2018-04-14T00:17:06.724Z,100857.13
2018-04-14T00:19:35.092Z,100862.58
2018-04-14T00:22:04.224Z,100868.27
2018-04-14T00:24:33.339Z,100880.44
2018-04-14T00:27:02.110Z,100879.08
2018-04-14T00:29:30.488Z,100883.73
2018-04-14T00:31:59.624Z,100889.75
2018-04-14T00:34:27.993Z,100893.72
2018-04-14T00:36:56.351Z,100892.44
2018-04-14T00:39:24.682Z,100897.45
2018-04-14T00:41:53.028Z,100897.44
2018-04-14T00:44:21.366Z,100896.69
2018-04-14T00:46:49.724Z,100897.63
2018-04-14T00:49:18.355Z,100891.50
2018-04-14T00:51:46.679Z,100903.15
2018-04-14T00:54:15.022Z,100911.52
2018-04-14T00:56:43.388Z,100910.48
2018-04-14T00:59:11.747Z,100913.52
2018-04-14T01:01:40.097Z,100917.28
2018-04-14T01:04:08.472Z,100919.06
2018-04-14T01:06:37.603Z,100920.14
2018-04-14T01:09:06.633Z,100918.00
2018-04-14T01:11:35.318Z,100917.61
2018-04-14T01:14:03.685Z,100925.92
2018-04-14T01:16:32.799Z,100929.21
2018-04-14T01:19:01.159Z,100931.16
2018-04-14T01:21:29.499Z,100942.37
2018-04-14T01:23:57.843Z,100947.16
2018-04-14T01:26:26.191Z,100943.98
2018-04-14T01:28:54.535Z,100954.69
2018-04-14T01:31:22.851Z,100956.81
2018-04-14T01:33:52.281Z,100961.59
2018-04-14T01:36:20.635Z,100962.61
2018-04-14T01:38:49.010Z,100967.91
2018-04-14T01:41:17.388Z,100961.23
2018-04-14T01:43:46.490Z,100953.65
2018-04-14T01:46:15.582Z,100943.80
2018-04-14T01:48:43.933Z,100947.56
2018-04-14T01:51:12.263Z,100948.18
2018-04-14T01:53:40.604Z,100946.52
2018-04-14T01:56:09.177Z,100952.73
2018-04-14T01:58:37.503Z,100957.26
2018-04-14T02:01:06.600Z,100970.16
2018-04-14T02:03:34.999Z,100976.70
2018-04-14T02:06:03.367Z,100973.56
2018-04-14T02:08:31.732Z,100976.95
2018-04-14T02:11:00.114Z,100976.41
2018-04-14T02:13:28.463Z,100978.17
2018-04-14T02:15:57.615Z,100975.91
2018-04-14T02:18:26.109Z,100972.56
2018-04-14T02:20:54.479Z,100972.52
2018-04-14T02:23:22.863Z,100971.08
2018-04-14T02:25:51.238Z,100980.19
2018-04-14T02:28:19.605Z,100974.29
2018-04-14T02:30:47.970Z,100978.31
2018-04-14T02:33:16.361Z,100970.96
2018-04-14T02:35:44.731Z,100976.56
2018-04-14T02:38:13.042Z,100980.22
2018-04-14T02:40:41.813Z,100981.81
2018-04-14T02:43:10.155Z,100992.72
2018-04-14T02:45:39.286Z,100986.72
2018-04-14T02:48:07.669Z,100995.67
2018-04-14T02:50:35.972Z,100998.32
2018-04-14T02:53:04.335Z,100994.33
2018-04-14T02:55:32.716Z,100996.37
2018-04-14T02:58:01.062Z,101000.97
2018-04-14T03:00:29.407Z,101004.70
2018-04-14T03:02:58.267Z,101007.08
2018-04-14T03:05:26.608Z,101018.80
2018-04-14T03:07:55.707Z,101014.55
2018-04-14T03:10:24.146Z,101010.81
2018-04-14T03:12:52.459Z,101019.72
2018-04-14T03:15:21.728Z,101014.20
2018-04-14T03:17:50.107Z,101016.58
2018-04-14T03:20:19.252Z,101023.46
2018-04-14T03:22:47.612Z,101021.00
2018-04-14T03:25:16.930Z,101021.34
2018-04-14T03:27:45.254Z,101029.48
2018-04-14T03:30:13.614Z,101031.01
2018-04-14T03:32:41.976Z,101030.42
2018-04-14T03:35:10.308Z,101033.47
2018-04-14T03:37:38.623Z,101035.18
2018-04-14T03:40:06.996Z,101028.47
2018-04-14T03:42:35.322Z,101032.88
2018-04-14T03:45:03.667Z,101036.45
2018-04-14T03:47:32.226Z,101041.71
2018-04-14T03:50:01.355Z,101037.98
2018-04-14T03:52:29.687Z,101044.59
2018-04-14T03:54:58.072Z,101045.27
2018-04-14T03:57:26.427Z,101051.56
2018-04-14T03:59:54.807Z,101045.95
2018-04-14T04:02:23.228Z,101045.79
2018-04-14T04:04:51.573Z,101048.67
2018-04-14T04:07:19.910Z,101049.86
2018-04-14T04:09:48.670Z,101059.88
2018-04-14T04:12:17.019Z,101054.63
2018-04-14T04:14:45.347Z,101057.33
2018-04-14T04:17:14.027Z,101053.17
2018-04-14T04:19:59.906Z,101053.46
2018-04-14T04:22:46.588Z,101055.80
2018-04-14T04:28:21.151Z,101056.77
2018-04-14T04:30:49.467Z,101055.75
2018-04-14T04:33:17.804Z,101055.16
2018-04-14T04:35:46.158Z,101065.77
2018-04-14T04:38:14.497Z,101067.53
2018-04-14T04:40:42.910Z,101058.44
2018-04-14T04:43:11.288Z,101066.34
2018-04-14T04:45:39.626Z,101072.39
2018-04-14T04:48:07.978Z,101071.97
2018-04-14T04:50:36.793Z,101074.35
2018-04-14T04:53:05.151Z,101075.80
2018-04-14T04:55:33.505Z,101075.59
2018-04-14T04:58:01.877Z,101081.66
2018-04-14T05:00:30.247Z,101088.45
2018-04-14T05:02:58.593Z,101088.45
2018-04-14T05:05:26.939Z,101094.06
2018-04-14T05:07:55.348Z,101090.71
2018-04-14T05:10:23.759Z,101094.56
2018-04-14T05:12:52.412Z,101099.97
2018-04-14T05:15:20.741Z,101104.43
2018-04-14T05:17:49.273Z,101107.66
2018-04-14T05:20:17.652Z,101105.09
2018-04-14T05:22:45.987Z,101105.69
2018-04-14T05:25:14.337Z,101107.27
2018-04-14T05:27:42.729Z,101109.22
2018-04-14T05:30:11.113Z,101110.32
2018-04-14T05:32:39.451Z,101114.13
2018-04-14T05:35:07.973Z,101111.34
2018-04-14T05:37:36.296Z,101108.88
2018-04-14T05:40:05.417Z,101118.56
2018-04-14T05:42:33.847Z,101122.55
2018-04-14T05:45:02.315Z,101117.12
2018-04-14T05:47:30.670Z,101120.77
2018-04-14T05:49:59.071Z,101118.11
2018-04-14T05:52:27.432Z,101126.84
2018-04-14T05:54:55.794Z,101131.36
2018-04-14T05:57:24.667Z,101124.31
2018-04-14T05:59:53.026Z,101131.13
2018-04-14T06:02:22.160Z,101129.16
2018-04-14T06:04:50.533Z,101132.69
2018-04-14T06:07:18.890Z,101133.66
2018-04-14T06:09:47.975Z,101140.59
2018-04-14T06:12:16.369Z,101140.75
2018-04-14T06:14:45.505Z,101146.31
2018-04-14T06:17:13.863Z,101148.50
2018-04-14T06:19:42.470Z,101155.06
2018-04-14T06:22:10.896Z,101149.42
2018-04-14T06:24:39.200Z,101146.23
2018-04-14T06:27:08.388Z,101157.52
2018-04-14T06:29:37.481Z,101154.91
2018-04-14T06:32:06.571Z,101164.93
2018-04-14T06:34:34.913Z,101167.36
2018-04-14T06:37:03.355Z,101169.58
2018-04-14T06:39:31.871Z,101187.61
2018-04-14T06:42:00.523Z,101182.22
2018-04-14T06:44:28.903Z,101185.52
2018-04-14T06:46:57.257Z,101191.80
2018-04-14T06:49:25.595Z,101183.90
2018-04-14T06:51:53.969Z,101191.06
2018-04-14T06:54:23.140Z,101185.00
2018-04-14T06:56:51.543Z,101191.95
2018-04-14T06:59:20.020Z,101189.11
2018-04-14T07:01:48.401Z,101188.31
2018-04-14T07:04:17.027Z,101194.91
2018-04-14T07:06:45.367Z,101185.63
2018-04-14T07:09:13.821Z,101179.64
2018-04-14T07:11:42.936Z,101183.22
2018-04-14T07:14:12.069Z,101181.02
2018-04-14T07:16:40.412Z,101173.65
2018-04-14T07:19:08.748Z,101170.77
2018-04-14T07:21:37.072Z,101175.10
2018-04-14T07:24:05.420Z,101166.17
2018-04-14T07:26:34.826Z,101174.35
2018-04-14T07:29:03.910Z,101176.97
2018-04-14T07:31:33.002Z,101178.08
2018-04-14T07:34:01.415Z,101184.53
2018-04-14T07:36:29.787Z,101196.86
2018-04-14T07:38:58.879Z,101198.64
2018-04-14T07:41:27.237Z,101199.41
2018-04-14T07:43:55.548Z,101202.55
2018-04-14T07:46:23.887Z,101216.83
2018-04-14T07:48:52.402Z,101216.99
2018-04-14T07:51:20.747Z,101219.69
2018-04-14T07:53:49.110Z,101229.83
2018-04-14T07:56:17.488Z,101234.22
2018-04-14T07:58:45.807Z,101238.84
2018-04-14T08:01:14.194Z,101241.62
2018-04-14T08:03:43.323Z,101258.13
2018-04-14T08:06:11.735Z,101250.95
2018-04-14T08:08:40.042Z,101253.67
2018-04-14T08:11:09.280Z,101262.34
2018-04-14T08:13:37.608Z,101262.75
2018-04-14T08:16:05.962Z,101270.59
2018-04-14T08:18:34.338Z,101280.48
2018-04-14T08:21:03.447Z,101285.27
2018-04-14T08:23:31.807Z,101285.31
2018-04-14T08:26:00.387Z,101291.07
2018-04-14T08:28:28.737Z,101290.03
2018-04-14T08:30:57.324Z,101302.26
2018-04-14T08:33:27.513Z,101302.73
2018-04-14T08:35:56.642Z,101304.92
2018-04-14T08:38:24.984Z,101313.12
2018-04-14T08:40:53.450Z,101309.97
2018-04-14T08:43:22.012Z,101317.88
2018-04-14T08:45:50.386Z,101318.02
2018-04-14T08:48:18.769Z,101317.50
2018-04-14T08:50:47.912Z,101325.20
2018-04-14T08:53:16.307Z,101328.08
2018-04-14T08:55:44.888Z,101329.61
2018-04-14T08:58:13.250Z,101329.52
2018-04-14T09:00:42.368Z,101329.58
2018-04-14T09:03:11.546Z,101332.45
2018-04-14T09:05:39.913Z,101335.73
2018-04-14T09:08:08.281Z,101339.64
2018-04-14T09:10:36.617Z,101344.12
2018-04-14T09:13:04.942Z,101340.82
2018-04-14T09:15:33.316Z,101345.91
2018-04-14T09:18:01.740Z,101347.95
2018-04-14T09:20:30.821Z,101356.39
2018-04-14T09:22:59.250Z,101353.51
2018-04-14T09:25:27.609Z,101354.87
2018-04-14T09:27:55.966Z,101357.00
2018-04-14T09:30:25.084Z,101363.06
2018-04-14T09:32:53.434Z,101371.34
2018-04-14T09:35:22.526Z,101370.94
2018-04-14T09:37:50.902Z,101372.77
2018-04-14T09:40:19.722Z,101378.66
2018-04-14T09:42:48.855Z,101373.20
2018-04-14T09:45:17.252Z,101376.13
2018-04-14T09:47:45.647Z,101377.86
2018-04-14T09:50:14.004Z,101387.30
2018-04-14T09:52:42.571Z,101385.34
2018-04-14T09:55:11.036Z,101390.52
2018-04-14T09:57:39.398Z,101390.64
2018-04-14T10:00:07.837Z,101397.10
2018-04-14T10:02:41.881Z,101394.44
2018-04-14T10:05:10.264Z,101404.39
2018-04-14T10:07:39.359Z,101401.68
2018-04-14T10:10:08.501Z,101404.60
2018-04-14T10:12:36.834Z,101408.80
2018-04-14T10:15:05.935Z,101412.66
2018-04-14T10:17:35.096Z,101414.66
2018-04-14T10:20:03.913Z,101420.89
2018-04-14T10:22:32.294Z,101419.87
2018-04-14T10:25:01.449Z,101423.08
2018-04-14T10:27:29.803Z,101429.63
2018-04-14T10:29:58.173Z,101432.48
2018-04-14T10:32:26.599Z,101434.50
2018-04-14T10:34:54.947Z,101437.30
2018-04-14T10:37:23.353Z,101438.72
2018-04-14T10:39:51.761Z,101443.89
2018-04-14T10:42:20.118Z,101442.12
2018-04-14T10:44:48.502Z,101450.30
2018-04-14T10:47:17.826Z,101454.73
2018-04-14T10:49:46.172Z,101460.75
2018-04-14T10:52:14.599Z,101463.44
2018-04-14T10:54:43.047Z,101465.59
2018-04-14T10:57:11.437Z,101471.85
2018-04-14T10:59:39.884Z,101474.33
2018-04-14T11:02:09.096Z,101482.05
2018-04-14T11:04:37.489Z,101484.39
2018-04-14T11:07:05.949Z,101483.14
2018-04-14T11:09:34.433Z,101486.67
2018-04-14T11:12:02.760Z,101494.58
2018-04-14T11:14:31.239Z,101490.23
2018-04-14T11:16:59.593Z,101502.11
2018-04-14T11:19:27.930Z,101494.58
2018-04-14T11:21:58.462Z,101496.83
2018-04-14T11:24:26.987Z,101503.84
2018-04-14T11:26:55.332Z,101499.27
2018-04-14T11:29:23.663Z,101503.25
2018-04-14T11:31:52.419Z,101509.42
2018-04-14T11:34:20.758Z,101501.52
2018-04-14T11:36:49.072Z,101515.97
2018-04-14T11:39:17.421Z,101519.73
2018-04-14T11:41:45.773Z,101520.27
2018-04-14T11:44:14.103Z,101525.76
2018-04-14T11:46:42.479Z,101532.39
2018-04-14T11:49:10.839Z,101533.38
2018-04-14T11:51:39.160Z,101541.21
2018-04-14T11:54:07.892Z,101540.75
2018-04-14T11:56:36.235Z,101546.38
2018-04-14T11:59:04.544Z,101548.30
2018-04-14T12:01:33.674Z,101550.80
2018-04-14T12:04:02.052Z,101553.05
2018-04-14T12:06:30.380Z,101556.97
2018-04-14T12:08:58.791Z,101567.27
2018-04-14T12:11:27.154Z,101570.58
2018-04-14T12:13:55.523Z,101577.55
2018-04-14T12:16:24.767Z,101571.98
2018-04-14T12:18:53.114Z,101578.50
2018-04-14T12:21:22.200Z,101588.20
2018-04-14T12:23:51.359Z,101576.09
2018-04-14T12:26:19.764Z,101582.37
2018-04-14T12:28:48.191Z,101577.24
2018-04-14T12:31:16.600Z,101588.47
2018-04-14T12:33:44.978Z,101586.67
2018-04-14T12:36:13.365Z,101587.34
2018-04-14T12:38:42.106Z,101595.59
2018-04-14T12:41:11.216Z,101596.32
2018-04-14T12:43:39.558Z,101601.59
2018-04-14T12:46:08.680Z,101597.74
2018-04-14T12:48:37.030Z,101598.86
2018-04-14T12:51:06.173Z,101596.61
2018-04-14T12:53:34.558Z,101600.11
2018-04-14T12:56:02.903Z,101595.61
2018-04-14T12:58:31.282Z,101598.58
2018-04-14T13:01:00.609Z,101605.20
2018-04-14T13:03:28.970Z,101602.42
2018-04-14T13:05:58.071Z,101613.12
2018-04-14T13:08:26.434Z,101601.12
2018-04-14T13:10:55.573Z,101598.52
2018-04-14T13:13:24.665Z,101613.59
2018-04-14T13:15:53.057Z,101608.77
2018-04-14T13:18:21.441Z,101619.41
2018-04-14T13:20:49.818Z,101607.45
2018-04-14T13:23:19.054Z,101607.02
2018-04-14T13:25:47.426Z,101613.11
2018-04-14T13:28:15.779Z,101613.77
2018-04-14T13:30:44.133Z,101608.69
2018-04-14T13:33:12.478Z,101621.42
2018-04-14T13:35:41.643Z,101621.62
2018-04-14T13:38:10.010Z,101624.85
2018-04-14T13:40:38.359Z,101626.31
2018-04-14T13:43:06.729Z,101627.08
2018-04-14T13:45:35.415Z,101631.02
2018-04-14T13:48:04.557Z,101631.92
2018-04-14T13:50:33.695Z,101636.08
2018-04-14T13:53:02.807Z,101634.68
2018-04-14T13:55:31.905Z,101636.87
2018-04-14T13:58:00.267Z,101640.66
2018-04-14T14:00:28.639Z,101645.22
2018-04-14T14:02:57.778Z,101644.55
2018-04-14T14:05:26.148Z,101640.78
2018-04-14T14:07:54.757Z,101640.06
2018-04-14T14:10:24.005Z,101651.06
2018-04-14T14:12:53.095Z,101652.44
2018-04-14T14:15:21.461Z,101657.45
2018-04-14T14:17:49.845Z,101654.56
2018-04-14T14:20:18.221Z,101661.15
2018-04-14T14:22:46.606Z,101658.59
2018-04-14T14:25:14.920Z,101659.33
2018-04-14T14:27:43.253Z,101650.68
2018-04-14T14:30:11.881Z,101652.96
2018-04-14T14:32:40.214Z,101658.95
2018-04-14T14:35:08.563Z,101655.33
2018-04-14T14:37:37.186Z,101669.29
2018-04-14T14:40:05.664Z,101667.80
2018-04-14T14:42:34.874Z,101662.62
2018-04-14T14:45:03.784Z,101673.03
2018-04-14T14:47:38.857Z,101670.06
2018-04-14T14:50:13.577Z,101673.41
2018-04-14T14:52:41.928Z,101677.71
2018-04-14T14:55:13.764Z,101672.53
2018-04-14T14:57:42.122Z,101666.16
2018-04-14T15:00:10.480Z,101674.69
2018-04-14T15:02:38.881Z,101675.07
2018-04-14T15:05:07.278Z,101665.66
2018-04-14T15:07:35.631Z,101672.95
2018-04-14T15:10:04.605Z,101678.48
2018-04-14T15:12:33.727Z,101676.03
2018-04-14T15:15:02.068Z,101673.87
2018-04-14T15:17:31.260Z,101679.06
2018-04-14T15:20:00.409Z,101674.55
2018-04-14T15:22:28.774Z,101674.09
2018-04-14T15:24:57.319Z,101687.01
2018-04-14T15:27:26.436Z,101678.83
2018-04-14T15:29:54.792Z,101684.94
2018-04-14T15:32:23.429Z,101688.08
2018-04-14T15:34:51.840Z,101689.98
2018-04-14T15:37:20.946Z,101691.45
2018-04-14T15:39:50.087Z,101690.90
2018-04-14T15:42:18.483Z,101682.97
2018-04-14T15:44:46.904Z,101685.77
2018-04-14T15:47:15.285Z,101694.26
2018-04-14T15:49:44.406Z,101690.87
2018-04-14T15:52:12.758Z,101703.38
2018-04-14T15:54:41.450Z,101697.91
2018-04-14T15:57:10.622Z,101701.02
2018-04-14T15:59:38.994Z,101702.62
2018-04-14T16:02:07.424Z,101707.84
2018-04-14T16:04:35.836Z,101706.94
2018-04-14T16:07:04.149Z,101710.66
2018-04-14T16:09:32.588Z,101707.13
2018-04-14T16:12:01.026Z,101710.91
2018-04-14T16:14:29.378Z,101719.02
2018-04-14T16:16:58.059Z,101712.44
2018-04-14T16:19:26.425Z,101718.31
2018-04-14T16:21:54.766Z,101725.28
2018-04-14T16:24:23.151Z,101719.70
2018-04-14T16:26:51.831Z,101724.63
2018-04-14T16:29:20.964Z,101733.70
2018-04-14T16:31:49.336Z,101715.40
2018-04-14T16:34:17.721Z,101712.30
2018-04-14T16:36:46.829Z,101717.68
2018-04-14T16:39:15.310Z,101703.98
2018-04-14T16:41:43.675Z,101703.14
2018-04-14T16:44:12.039Z,101709.92
2018-04-14T16:46:40.455Z,101707.13
2018-04-14T16:49:08.813Z,101702.03
2018-04-14T16:51:37.160Z,101700.23
2018-04-14T16:54:06.280Z,101701.34
2018-04-14T16:56:34.636Z,101693.91
2018-04-14T16:59:03.757Z,101697.55
2018-04-14T17:01:32.433Z,101699.13
2018-04-14T17:04:00.784Z,101691.41
2018-04-14T17:06:29.116Z,101691.55
2018-04-14T17:08:57.528Z,101693.58
2018-04-14T17:11:25.925Z,101689.52
2018-04-14T17:13:55.032Z,101687.47
2018-04-14T17:16:24.179Z,101682.77
2018-04-14T17:18:52.608Z,101679.38
2018-04-14T17:21:20.896Z,101683.09
2018-04-14T17:23:49.448Z,101693.75
2018-04-14T17:26:17.785Z,101691.35
2018-04-14T17:28:46.183Z,101682.41
2018-04-14T17:31:14.547Z,101680.28
2018-04-14T17:33:42.891Z,101688.63
2018-04-14T17:36:12.065Z,101680.73
2018-04-14T17:38:40.449Z,101676.66
2018-04-14T17:41:08.825Z,101671.20
2018-04-14T17:43:37.226Z,101666.65
2018-04-14T17:46:06.566Z,101660.69
2018-04-14T17:48:34.907Z,101666.41
2018-04-14T17:51:04.032Z,101666.72
2018-04-14T17:53:32.457Z,101671.45
2018-04-14T17:56:01.004Z,101672.31
2018-04-14T17:58:29.451Z,101671.84
2018-04-14T18:00:57.861Z,101666.41
2018-04-14T18:03:26.223Z,101658.13
2018-04-14T18:05:54.614Z,101654.57
2018-04-14T18:08:23.316Z,101661.11
2018-04-14T18:10:51.767Z,101669.75
2018-04-14T18:13:20.119Z,101663.45
2018-04-14T18:15:48.516Z,101662.13
2018-04-14T18:18:16.992Z,101674.08
2018-04-14T18:20:45.352Z,101680.88
2018-04-14T18:23:13.735Z,101686.67
2018-04-14T18:25:42.213Z,101683.69
2018-04-14T18:28:10.565Z,101691.69
2018-04-14T18:30:39.973Z,101703.05
2018-04-14T18:33:08.479Z,101706.27
2018-04-14T18:35:36.904Z,101715.47
2018-04-14T18:38:05.339Z,101720.68
2018-04-14T18:40:34.468Z,101719.70
2018-04-14T18:43:02.910Z,101727.09
2018-04-14T18:45:31.416Z,101732.02
2018-04-14T18:47:59.808Z,101729.91
2018-04-14T18:50:28.925Z,101725.14
2018-04-14T18:52:57.385Z,101732.77
2018-04-14T18:55:25.812Z,101734.64
2018-04-14T18:57:54.145Z,101734.02
2018-04-14T19:00:23.302Z,101735.47
2018-04-14T19:02:51.683Z,101734.32
2018-04-14T19:05:20.026Z,101728.44
2018-04-14T19:07:48.401Z,101732.22
2018-04-14T19:10:16.804Z,101732.72
2018-04-14T19:12:45.168Z,101731.26
2018-04-14T19:15:13.615Z,101745.76
2018-04-14T19:17:42.019Z,101749.84
2018-04-14T19:20:10.375Z,101747.39
2018-04-14T19:22:38.881Z,101750.92
2018-04-14T19:25:07.250Z,101755.52
2018-04-14T19:27:36.394Z,101750.34
2018-04-14T19:30:04.752Z,101751.86
2018-04-14T19:32:33.713Z,101760.40
2018-04-14T19:35:02.821Z,101751.02
2018-04-14T19:37:31.291Z,101749.00
2018-04-14T19:40:00.417Z,101745.67
2018-04-14T19:42:28.792Z,101745.91
2018-04-14T19:44:57.183Z,101738.64
2018-04-14T19:47:25.533Z,101735.00
2018-04-14T19:49:53.878Z,101724.49
2018-04-14T19:52:22.253Z,101734.63
2018-04-14T19:54:50.690Z,101727.39
2018-04-14T19:57:19.042Z,101726.98
2018-04-14T19:59:47.579Z,101722.50
2018-04-14T20:02:15.973Z,101718.52
2018-04-14T20:04:44.349Z,101716.25
2018-04-14T20:07:12.857Z,101717.66
2018-04-14T20:09:41.991Z,101715.36
2018-04-14T20:12:10.338Z,101712.05
2018-04-14T20:14:38.811Z,101713.44
2018-04-14T20:17:07.159Z,101721.97
2018-04-14T20:19:35.541Z,101725.92
2018-04-14T20:22:04.296Z,101724.44
2018-04-14T20:24:32.637Z,101722.13
2018-04-14T20:27:01.740Z,101713.35
2018-04-14T20:29:31.025Z,101707.89
2018-04-14T20:31:59.428Z,101706.63
2018-04-14T20:34:27.750Z,101704.99
2018-04-14T20:36:56.159Z,101712.69
2018-04-14T20:39:24.517Z,101718.84
2018-04-14T20:41:53.619Z,101717.23
2018-04-14T20:44:22.091Z,101721.98
2018-04-14T20:46:50.415Z,101719.58
2018-04-14T20:49:19.597Z,101721.81
2018-04-14T20:51:48.003Z,101722.68
2018-04-14T20:54:17.183Z,101715.30
2018-04-14T20:56:45.594Z,101713.83
2018-04-14T20:59:13.983Z,101716.94
2018-04-14T21:01:42.298Z,101713.88
2018-04-14T21:04:11.433Z,101720.97
2018-04-14T21:06:40.829Z,101712.00
2018-04-14T21:09:09.922Z,101715.48
2018-04-14T21:11:38.271Z,101723.62
2018-04-14T21:14:06.656Z,101733.60
2018-04-14T21:16:35.112Z,101729.67
2018-04-14T21:19:03.444Z,101736.13
2018-04-14T21:21:31.807Z,101734.66
2018-04-14T21:24:00.179Z,101737.14
2018-04-14T21:26:28.599Z,101730.73
2018-04-14T21:28:57.028Z,101736.20
2018-04-14T21:31:25.380Z,101725.73
2018-04-14T21:33:53.716Z,101721.91
2018-04-14T21:36:22.102Z,101725.83
2018-04-14T21:38:51.352Z,101719.30
2018-04-14T21:41:19.677Z,101713.08
2018-04-14T21:43:48.038Z,101711.52
2018-04-14T21:46:16.405Z,101707.66
2018-04-14T21:48:44.766Z,101710.50
2018-04-14T21:51:13.420Z,101714.32
2018-04-14T21:53:41.851Z,101715.69
2018-04-14T21:56:10.214Z,101719.11
2018-04-14T21:58:38.581Z,101722.02
2018-04-14T22:01:06.931Z,101717.56
2018-04-14T22:03:35.270Z,101725.05
2018-04-14T22:06:03.637Z,101729.30
2018-04-14T22:08:31.966Z,101732.38
2018-04-14T22:11:01.089Z,101741.41
2018-04-14T22:13:29.890Z,101740.12
2018-04-14T22:15:58.237Z,101750.09
2018-04-14T22:18:27.324Z,101752.20
2018-04-14T22:20:56.463Z,101747.84
2018-04-14T22:23:24.761Z,101752.41
2018-04-14T22:25:53.104Z,101751.70
2018-04-14T22:28:21.474Z,101747.23
2018-04-14T22:30:49.804Z,101742.78
2018-04-14T22:33:18.153Z,101731.42
2018-04-14T22:35:46.969Z,101735.00
2018-04-14T22:38:15.359Z,101726.70
2018-04-14T22:40:43.710Z,101724.12
2018-04-14T22:43:12.085Z,101725.33
2018-04-14T22:45:40.415Z,101725.30
2018-04-14T22:48:08.760Z,101724.95
2018-04-14T22:50:37.116Z,101723.58
2018-04-14T22:53:05.459Z,101728.09
2018-04-14T22:55:34.572Z,101733.71
2018-04-14T22:58:03.156Z,101734.65
2018-04-14T23:00:31.538Z,101737.08
2018-04-14T23:02:59.858Z,101733.66
2018-04-14T23:05:28.281Z,101741.20
2018-04-14T23:07:57.397Z,101743.27
2018-04-14T23:10:25.718Z,101741.66
2018-04-14T23:12:54.073Z,101747.81
2018-04-14T23:15:22.418Z,101743.85
2018-04-14T23:17:51.544Z,101741.39
2018-04-14T23:20:20.082Z,101745.09
2018-04-14T23:22:49.196Z,101746.67
2018-04-14T23:25:18.275Z,101747.08
2018-04-14T23:27:46.599Z,101746.22
2018-04-14T23:30:14.948Z,101761.61
2018-04-14T23:32:44.031Z,101760.78
2018-04-14T23:35:13.148Z,101761.78
2018-04-14T23:37:41.810Z,101758.64
2018-04-14T23:40:10.178Z,101756.66
2018-04-14T23:42:38.584Z,101747.16
2018-04-14T23:45:07.660Z,101745.16
2018-04-14T23:47:35.987Z,101738.67
2018-04-14T23:50:04.336Z,101726.19
2018-04-14T23:52:32.689Z,101722.55
2018-04-14T23:55:01.029Z,101732.96
2018-04-14T23:57:29.372Z,101721.98
2018-04-14T23:59:58.461Z,101710.92
